Time;durP1;ratioP1;P1;durP2;ratioP2;P2;SDS_P1;SDS_P2;PMS_P1;PMS_P2;Temp;Humidity;BMP_temperature;BMP_pressure;BME280_temperature;BME280_humidity;BME280_pressure;Samples;Min_cycle;Max_cycle;Signal;HPM_P1;HPM_P2
2022/07/13 00:00:11;;;;;;;1.60;0.90;;;13.20;87.90;;;;;;4196194;28;20229;-74
2022/07/13 00:02:12;;;;;;;1.30;1.17;;;13.20;86.70;;;;;;4193859;28;20187;-73
2022/07/13 00:04:12;;;;;;;1.10;0.97;;;13.20;86.80;;;;;;4196285;28;20204;-73
2022/07/13 00:06:13;;;;;;;1.70;1.00;;;13.20;86.10;;;;;;4196214;28;20222;-73
2022/07/13 00:08:13;;;;;;;1.37;1.03;;;13.20;86.90;;;;;;4196136;28;20188;-73
2022/07/13 00:10:14;;;;;;;1.10;0.90;;;13.20;86.80;;;;;;4195945;28;20190;-73
2022/07/13 00:12:14;;;;;;;1.67;1.10;;;13.10;86.20;;;;;;4195538;28;20280;-74
2022/07/13 00:14:16;;;;;;;1.00;0.90;;;13.10;86.80;;;;;;4196020;28;20640;-73
2022/07/13 00:16:16;;;;;;;1.10;1.00;;;13.20;86.60;;;;;;4196115;28;20646;-74
2022/07/13 00:18:17;;;;;;;1.10;1.00;;;13.20;87.10;;;;;;4196362;28;20183;-73
2022/07/13 00:20:18;;;;;;;1.10;1.00;;;13.10;86.80;;;;;;4195862;28;20167;-73
2022/07/13 00:22:18;;;;;;;1.93;1.00;;;13.10;87.10;;;;;;4195370;28;20168;-73
2022/07/13 00:24:19;;;;;;;1.20;1.10;;;13.00;87.80;;;;;;4195964;28;20205;-74
2022/07/13 00:26:19;;;;;;;1.10;0.90;;;13.00;87.70;;;;;;4196160;28;20186;-73
2022/07/13 00:28:20;;;;;;;0.93;0.83;;;12.90;88.30;;;;;;4196121;28;20187;-74
2022/07/13 00:30:21;;;;;;;1.87;0.90;;;12.90;90.10;;;;;;4196151;28;20188;-74
2022/07/13 00:32:21;;;;;;;1.17;1.07;;;12.80;89.10;;;;;;4195368;28;20317;-74
2022/07/13 00:34:22;;;;;;;1.07;1.00;;;12.80;89.30;;;;;;4196409;28;20203;-73
2022/07/13 00:36:22;;;;;;;3.13;1.30;;;12.80;89.50;;;;;;4195859;28;20182;-73
2022/07/13 00:38:23;;;;;;;2.80;0.90;;;12.80;89.90;;;;;;4195843;28;20175;-73
2022/07/13 00:40:23;;;;;;;1.10;1.00;;;12.90;90.60;;;;;;4195855;28;20179;-74
2022/07/13 00:42:24;;;;;;;1.10;1.00;;;12.80;89.90;;;;;;4195152;28;20580;-74
2022/07/13 00:44:24;;;;;;;2.80;1.23;;;12.70;90.00;;;;;;4195925;28;20207;-74
2022/07/13 00:46:25;;;;;;;1.10;1.00;;;12.70;90.70;;;;;;4195680;28;20196;-74
2022/07/13 00:48:27;;;;;;;1.90;1.03;;;12.70;90.50;;;;;;4195820;28;20278;-74
2022/07/13 00:50:28;;;;;;;1.60;1.10;;;12.70;90.70;;;;;;4196001;28;20183;-73
2022/07/13 00:52:30;;;;;;;2.87;1.00;;;12.70;90.60;;;;;;4195076;28;20723;-73
2022/07/13 00:54:31;;;;;;;1.97;0.90;;;12.70;90.50;;;;;;4195452;28;20222;-74
2022/07/13 00:56:32;;;;;;;1.80;1.20;;;12.70;90.50;;;;;;4195900;28;20207;-74
2022/07/13 00:58:33;;;;;;;1.20;0.90;;;12.70;90.60;;;;;;4195511;28;20195;-74
2022/07/13 01:00:36;;;;;;;1.63;1.20;;;12.70;91.10;;;;;;4195877;28;20234;-74
2022/07/13 01:02:37;;;;;;;1.00;1.00;;;12.60;90.90;;;;;;4195404;28;20179;-74
2022/07/13 01:04:38;;;;;;;1.10;1.00;;;12.60;91.10;;;;;;4201585;28;20214;-74
2022/07/13 01:06:39;;;;;;;1.00;1.00;;;12.50;91.40;;;;;;4212985;28;20183;-74
2022/07/13 01:08:40;;;;;;;1.20;1.10;;;12.50;91.40;;;;;;4212296;28;20194;-74
2022/07/13 01:10:42;;;;;;;2.60;1.00;;;12.40;91.60;;;;;;4212179;28;20252;-74
2022/07/13 01:12:43;;;;;;;1.03;1.00;;;12.40;91.60;;;;;;4212289;28;20681;-74
2022/07/13 01:14:44;;;;;;;1.17;1.07;;;12.40;91.80;;;;;;4212152;28;20230;-75
2022/07/13 01:16:45;;;;;;;1.20;1.10;;;12.40;92.00;;;;;;4212280;28;20171;-74
2022/07/13 01:18:46;;;;;;;0.90;0.90;;;12.20;92.50;;;;;;4212293;28;20189;-75
2022/07/13 01:20:47;;;;;;;1.17;1.03;;;12.30;92.40;;;;;;4211783;28;20230;-75
2022/07/13 01:22:52;;;;;;;1.17;1.07;;;12.20;92.50;;;;;;4212539;28;20511;-75
2022/07/13 01:24:54;;;;;;;1.57;1.23;;;12.20;92.60;;;;;;4212149;28;20198;-74
2022/07/13 01:26:55;;;;;;;1.10;1.00;;;12.20;93.10;;;;;;4212617;28;20653;-75
2022/07/13 01:28:55;;;;;;;2.50;1.00;;;12.10;93.10;;;;;;4212507;28;20183;-74
2022/07/13 01:30:56;;;;;;;1.20;1.00;;;12.10;93.20;;;;;;4211818;28;20183;-75
2022/07/13 01:32:56;;;;;;;1.60;0.97;;;12.10;93.40;;;;;;4215549;28;20215;-74
2022/07/13 01:34:57;;;;;;;1.40;1.03;;;12.10;93.40;;;;;;4215433;28;20244;-75
2022/07/13 01:36:59;;;;;;;0.80;0.80;;;12.10;93.40;;;;;;4215571;28;20179;-73
2022/07/13 01:38:59;;;;;;;1.10;1.10;;;12.10;93.30;;;;;;4215120;28;20179;-74
2022/07/13 01:41:01;;;;;;;1.20;1.10;;;12.10;93.40;;;;;;4212861;28;20190;-75
2022/07/13 01:43:02;;;;;;;0.93;0.93;;;12.00;93.70;;;;;;4214789;28;20183;-75
2022/07/13 01:45:04;;;;;;;0.90;0.90;;;12.00;93.70;;;;;;4214843;28;20543;-75
2022/07/13 01:47:08;;;;;;;2.03;0.97;;;11.90;93.90;;;;;;4214938;28;20183;-74
2022/07/13 01:49:09;;;;;;;1.40;1.20;;;11.90;94.10;;;;;;4205140;28;20229;-73
2022/07/13 01:51:10;;;;;;;1.20;1.10;;;11.80;94.20;;;;;;4196138;28;20278;-73
2022/07/13 01:53:11;;;;;;;1.07;0.97;;;11.80;94.40;;;;;;4197926;28;20172;-74
2022/07/13 01:55:13;;;;;;;1.20;1.10;;;11.80;94.40;;;;;;4197986;28;20233;-74
2022/07/13 01:57:13;;;;;;;1.10;1.00;;;11.80;94.50;;;;;;4197697;28;20179;-73
2022/07/13 01:59:14;;;;;;;1.30;1.20;;;11.80;94.60;;;;;;4197908;28;20599;-73
2022/07/13 02:01:14;;;;;;;1.37;1.10;;;11.80;94.60;;;;;;4197432;28;20214;-73
2022/07/13 02:03:15;;;;;;;2.70;1.10;;;11.80;94.70;;;;;;4197857;28;20194;-74
2022/07/13 02:05:17;;;;;;;1.10;1.00;;;11.80;94.80;;;;;;4198184;28;20206;-73
2022/07/13 02:07:18;;;;;;;1.27;1.10;;;11.70;94.90;;;;;;4198076;28;20191;-74
2022/07/13 02:09:18;;;;;;;1.20;1.10;;;11.70;95.20;;;;;;4197826;28;20666;-73
2022/07/13 02:11:19;;;;;;;1.13;1.03;;;11.70;95.20;;;;;;4197087;28;20179;-73
2022/07/13 02:13:21;;;;;;;1.83;1.40;;;11.60;95.40;;;;;;4197491;28;20179;-73
2022/07/13 02:15:21;;;;;;;1.20;0.90;;;11.60;95.50;;;;;;4197905;28;20659;-74
2022/07/13 02:17:22;;;;;;;1.50;1.10;;;11.60;95.70;;;;;;4196563;28;20188;-73
2022/07/13 02:19:23;;;;;;;1.23;1.13;;;11.60;96.10;;;;;;4197300;28;20201;-73
2022/07/13 02:21:24;;;;;;;1.33;1.10;;;11.60;95.60;;;;;;4196755;28;20243;-73
2022/07/13 02:23:26;;;;;;;1.10;1.00;;;11.60;95.70;;;;;;4204551;28;20233;-73
2022/07/13 02:25:27;;;;;;;1.03;1.00;;;11.60;96.30;;;;;;4213873;28;20213;-74
2022/07/13 02:27:27;;;;;;;0.97;0.90;;;11.50;96.20;;;;;;4214111;28;20186;-73
2022/07/13 02:29:28;;;;;;;1.10;1.00;;;11.50;96.20;;;;;;4214144;28;20183;-73
2022/07/13 02:31:29;;;;;;;1.30;1.20;;;11.50;96.50;;;;;;4211969;28;20205;-74
2022/07/13 02:33:29;;;;;;;1.20;1.10;;;11.50;96.40;;;;;;4213753;28;20185;-73
2022/07/13 02:35:30;;;;;;;1.10;1.00;;;11.50;96.30;;;;;;4214001;28;20226;-73
2022/07/13 02:37:30;;;;;;;1.70;1.03;;;11.40;96.50;;;;;;4213767;28;20723;-73
2022/07/13 02:39:31;;;;;;;1.13;1.00;;;11.40;96.80;;;;;;4212285;28;20201;-73
2022/07/13 02:41:32;;;;;;;1.57;1.33;;;11.40;96.60;;;;;;4212993;28;20271;-73
2022/07/13 02:43:32;;;;;;;1.20;1.10;;;11.30;96.50;;;;;;4213766;28;20171;-73
2022/07/13 02:45:33;;;;;;;1.27;1.17;;;11.30;96.30;;;;;;4213868;28;20205;-73
2022/07/13 02:47:34;;;;;;;1.37;1.27;;;11.30;96.50;;;;;;4213844;28;20186;-73
2022/07/13 02:49:34;;;;;;;1.13;1.03;;;11.20;97.00;;;;;;4212936;28;20336;-73
2022/07/13 02:51:35;;;;;;;1.57;1.10;;;11.20;97.40;;;;;;4213099;28;20198;-73
2022/07/13 02:53:36;;;;;;;1.40;1.30;;;11.20;97.50;;;;;;4212421;28;20189;-73
2022/07/13 02:55:36;;;;;;;1.30;1.20;;;11.30;97.80;;;;;;4213782;28;20167;-73
2022/07/13 02:57:38;;;;;;;1.17;0.97;;;11.30;97.60;;;;;;4213514;28;20716;-73
2022/07/13 02:59:38;;;;;;;1.30;1.20;;;11.30;97.30;;;;;;4212301;28;20178;-73
2022/07/13 03:01:39;;;;;;;1.57;1.37;;;11.30;97.20;;;;;;4212944;28;20185;-73
2022/07/13 03:03:39;;;;;;;1.50;1.30;;;11.20;97.00;;;;;;4214556;28;20711;-73
2022/07/13 03:05:40;;;;;;;1.63;1.10;;;11.10;98.30;;;;;;4214338;28;20208;-72
2022/07/13 03:07:40;;;;;;;2.07;1.10;;;11.10;98.10;;;;;;4213618;28;20183;-72
2022/07/13 03:09:41;;;;;;;1.83;1.00;;;11.10;98.10;;;;;;4213731;28;20182;-73
2022/07/13 03:11:42;;;;;;;1.97;1.20;;;11.20;98.40;;;;;;4212733;28;20194;-73
2022/07/13 03:13:42;;;;;;;1.20;1.10;;;11.10;98.10;;;;;;4213359;28;20198;-73
2022/07/13 03:15:43;;;;;;;1.57;1.47;;;11.20;98.20;;;;;;4213425;28;20178;-73
2022/07/13 03:17:43;;;;;;;1.30;1.20;;;11.10;97.80;;;;;;4213374;28;20313;-73
2022/07/13 03:19:44;;;;;;;1.20;1.10;;;11.10;98.10;;;;;;4213446;28;20742;-73
2022/07/13 03:21:44;;;;;;;1.20;1.10;;;11.10;98.00;;;;;;4212554;28;20228;-73
2022/07/13 03:23:45;;;;;;;1.20;1.10;;;11.10;98.20;;;;;;4213198;28;20739;-73
2022/07/13 03:25:46;;;;;;;1.20;1.10;;;11.10;98.00;;;;;;4213344;28;20183;-73
2022/07/13 03:27:46;;;;;;;1.53;1.27;;;11.10;98.30;;;;;;4213347;28;20273;-73
2022/07/13 03:29:47;;;;;;;1.37;1.27;;;11.10;98.50;;;;;;4213043;28;20170;-73
2022/07/13 03:31:47;;;;;;;1.40;1.20;;;11.00;99.00;;;;;;4212274;28;20290;-73
2022/07/13 03:33:48;;;;;;;1.40;1.10;;;11.00;99.30;;;;;;4213620;28;20201;-73
2022/07/13 03:35:49;;;;;;;1.20;1.10;;;11.00;99.50;;;;;;4213575;28;20229;-73
2022/07/13 03:37:50;;;;;;;1.70;1.10;;;11.00;99.30;;;;;;4213110;28;20175;-73
2022/07/13 03:39:50;;;;;;;1.57;1.20;;;11.10;98.90;;;;;;4213111;28;20247;-73
2022/07/13 03:41:51;;;;;;;1.33;1.10;;;11.00;98.80;;;;;;4213794;28;20185;-73
2022/07/13 03:43:52;;;;;;;1.13;1.03;;;11.00;98.60;;;;;;4215193;28;20201;-74
2022/07/13 03:45:52;;;;;;;1.40;1.03;;;11.00;98.20;;;;;;4214947;28;20188;-73
2022/07/13 03:47:53;;;;;;;1.40;1.30;;;10.90;98.20;;;;;;4214989;28;20178;-73
2022/07/13 03:49:54;;;;;;;1.30;1.20;;;10.90;97.90;;;;;;4214576;28;20646;-74
2022/07/13 03:51:54;;;;;;;1.40;1.10;;;10.90;97.80;;;;;;4212809;28;20445;-74
2022/07/13 03:53:55;;;;;;;3.50;1.17;;;10.90;98.00;;;;;;4214934;28;20198;-73
2022/07/13 03:55:55;;;;;;;1.73;1.20;;;10.90;98.50;;;;;;4214741;28;20182;-74
2022/07/13 03:57:56;;;;;;;1.57;1.30;;;10.90;99.10;;;;;;4214123;28;20189;-73
2022/07/13 03:59:56;;;;;;;1.40;1.30;;;10.90;99.90;;;;;;4203960;28;20656;-74
2022/07/13 04:01:57;;;;;;;1.30;1.20;;;11.00;99.90;;;;;;4197368;28;20664;-73
2022/07/13 04:04:01;;;;;;;1.33;1.20;;;11.10;99.90;;;;;;4197683;28;20209;-73
2022/07/13 04:06:01;;;;;;;1.10;1.00;;;11.10;99.40;;;;;;4197928;28;20190;-73
2022/07/13 04:08:02;;;;;;;1.10;1.00;;;11.20;99.00;;;;;;4197872;28;20210;-72
2022/07/13 04:10:03;;;;;;;1.97;1.30;;;11.20;98.90;;;;;;4197907;28;20222;-72
2022/07/13 04:12:03;;;;;;;1.20;1.10;;;11.30;99.00;;;;;;4197440;28;20580;-74
2022/07/13 04:14:04;;;;;;;1.60;1.50;;;11.30;98.80;;;;;;4198286;28;20195;-74
2022/07/13 04:16:05;;;;;;;1.97;1.10;;;11.30;98.60;;;;;;4198541;28;20180;-74
2022/07/13 04:18:05;;;;;;;1.10;1.00;;;11.40;98.10;;;;;;4198348;28;20193;-74
2022/07/13 04:20:07;;;;;;;1.47;1.37;;;11.40;96.90;;;;;;4198006;28;20210;-74
2022/07/13 04:22:08;;;;;;;1.20;1.10;;;11.40;97.00;;;;;;4196975;28;20320;-74
2022/07/13 04:24:08;;;;;;;1.40;1.27;;;11.40;97.70;;;;;;4198078;28;20207;-74
2022/07/13 04:26:09;;;;;;;1.20;1.10;;;11.30;98.20;;;;;;4197530;28;20184;-74
2022/07/13 04:28:09;;;;;;;1.53;1.10;;;11.30;97.90;;;;;;4197883;28;20352;-74
2022/07/13 04:30:10;;;;;;;1.10;1.10;;;11.30;98.00;;;;;;4197984;28;20233;-74
2022/07/13 04:32:11;;;;;;;1.10;1.00;;;11.40;98.00;;;;;;4197545;28;20203;-74
2022/07/13 04:34:12;;;;;;;3.73;1.23;;;11.40;97.70;;;;;;4208267;28;20263;-74
2022/07/13 04:36:12;;;;;;;1.73;0.97;;;11.40;98.10;;;;;;4210451;28;20179;-74
2022/07/13 04:38:13;;;;;;;2.40;1.03;;;11.40;97.70;;;;;;4214780;28;20190;-74
2022/07/13 04:40:14;;;;;;;1.37;1.00;;;11.40;98.00;;;;;;4214856;28;20174;-74
2022/07/13 04:42:14;;;;;;;1.10;1.00;;;11.40;98.00;;;;;;4213846;28;20193;-74
2022/07/13 04:44:15;;;;;;;1.30;1.20;;;11.40;98.10;;;;;;4214786;28;20233;-74
2022/07/13 04:46:16;;;;;;;0.90;0.90;;;11.40;98.60;;;;;;4214129;28;20281;-74
2022/07/13 04:48:17;;;;;;;2.63;1.20;;;11.50;98.10;;;;;;4214896;28;20205;-73
2022/07/13 04:50:19;;;;;;;1.23;1.13;;;11.50;98.20;;;;;;4213597;28;20203;-74
2022/07/13 04:52:19;;;;;;;1.10;1.00;;;11.60;98.10;;;;;;4212135;28;20210;-73
2022/07/13 04:54:21;;;;;;;3.33;1.20;;;11.60;98.00;;;;;;4213783;28;20203;-73
2022/07/13 04:56:21;;;;;;;1.10;1.00;;;11.60;97.90;;;;;;4214477;28;20178;-72
2022/07/13 04:58:22;;;;;;;1.77;1.10;;;11.60;98.50;;;;;;4214107;28;20183;-71
2022/07/13 05:00:23;;;;;;;1.30;1.20;;;11.70;97.50;;;;;;4214607;28;20178;-71
2022/07/13 05:02:24;;;;;;;1.20;1.10;;;11.70;97.50;;;;;;4214444;28;20175;-71
2022/07/13 05:04:25;;;;;;;1.30;1.20;;;11.70;97.60;;;;;;4216110;28;20238;-71
2022/07/13 05:06:25;;;;;;;1.97;1.20;;;11.80;97.60;;;;;;4215863;28;20604;-72
2022/07/13 05:08:26;;;;;;;0.90;0.90;;;11.80;98.10;;;;;;4218074;28;20215;-71
2022/07/13 05:10:28;;;;;;;1.20;1.10;;;11.80;98.00;;;;;;4217925;28;20198;-71
2022/07/13 05:12:28;;;;;;;1.87;1.10;;;11.90;98.00;;;;;;4217456;28;20259;-74
2022/07/13 05:14:29;;;;;;;1.33;1.10;;;11.90;98.00;;;;;;4217651;28;20207;-73
2022/07/13 05:16:30;;;;;;;1.40;1.30;;;12.00;97.70;;;;;;4217782;28;20183;-72
2022/07/13 05:18:30;;;;;;;1.20;1.10;;;12.00;97.50;;;;;;4217648;28;20202;-72
2022/07/13 05:20:31;;;;;;;5.40;1.13;;;12.00;97.50;;;;;;4216745;28;20198;-73
2022/07/13 05:22:32;;;;;;;3.07;1.30;;;12.10;97.50;;;;;;4215863;28;20187;-72
2022/07/13 05:24:32;;;;;;;1.03;1.00;;;12.10;97.50;;;;;;4217677;28;20206;-72
2022/07/13 05:26:33;;;;;;;0.87;0.87;;;12.20;97.20;;;;;;4218057;28;20218;-72
2022/07/13 05:28:33;;;;;;;1.47;1.20;;;12.30;96.90;;;;;;4218025;28;20200;-73
2022/07/13 05:30:34;;;;;;;1.20;1.10;;;12.40;96.60;;;;;;4215628;28;20179;-71
2022/07/13 05:32:35;;;;;;;1.17;1.10;;;12.40;96.60;;;;;;4213617;28;20293;-72
2022/07/13 05:34:35;;;;;;;1.60;1.03;;;12.50;96.50;;;;;;4214465;28;20199;-72
2022/07/13 05:36:36;;;;;;;1.27;1.00;;;12.60;96.80;;;;;;4214533;28;20836;-71
2022/07/13 05:38:37;;;;;;;1.37;1.03;;;12.60;96.80;;;;;;4214283;28;20693;-72
2022/07/13 05:40:38;;;;;;;1.13;0.90;;;12.70;97.00;;;;;;4214651;28;20183;-72
2022/07/13 05:42:38;;;;;;;3.23;1.40;;;12.70;96.70;;;;;;4213783;28;20182;-72
2022/07/13 05:44:39;;;;;;;1.43;0.90;;;12.90;96.50;;;;;;4214402;28;20239;-72
2022/07/13 05:46:40;;;;;;;2.07;1.20;;;13.00;96.90;;;;;;4214400;28;20688;-72
2022/07/13 05:48:40;;;;;;;1.10;1.00;;;13.20;96.50;;;;;;4214365;28;20217;-72
2022/07/13 05:50:41;;;;;;;0.83;0.80;;;13.30;95.90;;;;;;4214199;28;20178;-71
2022/07/13 05:52:42;;;;;;;1.33;1.00;;;13.50;95.00;;;;;;4213624;28;20245;-71
2022/07/13 05:54:43;;;;;;;1.83;1.00;;;13.50;94.70;;;;;;4214130;28;20206;-72
2022/07/13 05:56:43;;;;;;;1.93;0.97;;;13.70;94.40;;;;;;4214032;28;20791;-72
2022/07/13 05:58:44;;;;;;;1.23;1.10;;;13.80;94.00;;;;;;4214018;28;20194;-72
2022/07/13 06:00:45;;;;;;;1.13;1.00;;;13.90;93.00;;;;;;4213597;28;20179;-72
2022/07/13 06:02:45;;;;;;;0.83;0.80;;;14.00;92.50;;;;;;4213955;28;20179;-71
2022/07/13 06:04:46;;;;;;;0.87;0.87;;;14.20;92.10;;;;;;4213985;28;20610;-72
2022/07/13 06:06:47;;;;;;;1.03;0.93;;;14.20;91.60;;;;;;4213993;28;20598;-72
2022/07/13 06:08:47;;;;;;;1.13;1.00;;;14.40;90.50;;;;;;4213347;28;20257;-72
2022/07/13 06:10:48;;;;;;;0.97;0.97;;;14.50;89.30;;;;;;4198649;28;20776;-72
2022/07/13 06:12:49;;;;;;;1.00;0.90;;;14.80;87.00;;;;;;4197111;28;20294;-72
2022/07/13 06:14:49;;;;;;;1.30;0.90;;;15.00;84.00;;;;;;4196881;28;20259;-71
2022/07/13 06:16:50;;;;;;;1.97;1.00;;;15.10;81.60;;;;;;4196717;28;20171;-72
2022/07/13 06:18:50;;;;;;;1.27;0.97;;;15.40;80.50;;;;;;4197104;28;20176;-72
2022/07/13 06:20:51;;;;;;;1.27;0.90;;;15.50;77.70;;;;;;4196300;28;20184;-71
2022/07/13 06:23:10;;;;;;;1.43;0.70;;;15.80;75.30;;;;;;4196954;28;20175;-71
2022/07/13 06:25:10;;;;;;;3.47;0.93;;;15.90;74.20;;;;;;4197159;28;20619;-71
2022/07/13 06:27:11;;;;;;;1.20;0.90;;;16.10;73.60;;;;;;4197102;28;20180;-71
2022/07/13 06:29:11;;;;;;;1.47;0.90;;;16.30;70.50;;;;;;4203820;28;20183;-71
2022/07/13 06:31:13;;;;;;;1.73;0.80;;;16.50;68.60;;;;;;4212710;28;20257;-71
2022/07/13 06:33:13;;;;;;;0.80;0.80;;;16.50;70.30;;;;;;4213582;28;20732;-71
2022/07/13 06:35:14;;;;;;;0.80;0.80;;;16.80;68.20;;;;;;4212218;28;20202;-71
2022/07/13 06:37:14;;;;;;;3.37;0.97;;;17.00;66.20;;;;;;4213545;28;20179;-72
2022/07/13 06:39:15;;;;;;;0.90;0.90;;;17.00;67.10;;;;;;4213635;28;20585;-72
2022/07/13 06:41:16;;;;;;;1.00;0.83;;;17.10;65.80;;;;;;4212908;28;20534;-72
2022/07/13 06:43:16;;;;;;;0.90;0.80;;;17.10;66.00;;;;;;4213503;28;20178;-72
2022/07/13 06:45:17;;;;;;;1.73;0.83;;;17.40;63.70;;;;;;4213707;28;20716;-72
2022/07/13 06:47:18;;;;;;;0.73;0.73;;;17.50;63.40;;;;;;4213265;28;20646;-72
2022/07/13 06:49:18;;;;;;;0.80;0.80;;;17.70;62.10;;;;;;4213380;28;20699;-71
2022/07/13 06:51:19;;;;;;;1.43;1.33;;;17.80;62.10;;;;;;4212788;28;20179;-72
2022/07/13 06:53:20;;;;;;;0.80;0.80;;;18.10;57.50;;;;;;4213025;28;20242;-71
2022/07/13 06:55:20;;;;;;;1.73;0.90;;;18.40;57.90;;;;;;4209776;28;20250;-69
2022/07/13 06:57:21;;;;;;;1.07;0.80;;;18.30;57.50;;;;;;4203850;28;20214;-69
2022/07/13 06:59:21;;;;;;;2.73;1.50;;;18.40;58.10;;;;;;4209392;28;20178;-68
2022/07/13 07:01:22;;;;;;;0.70;0.70;;;18.60;55.90;;;;;;4208570;28;20182;-71
2022/07/13 07:03:22;;;;;;;1.00;0.87;;;18.60;56.30;;;;;;4208115;28;20893;-75
2022/07/13 07:05:23;;;;;;;2.00;0.87;;;18.80;55.30;;;;;;4208791;28;20266;-75
2022/07/13 07:07:24;;;;;;;0.80;0.80;;;19.00;55.30;;;;;;4209265;28;20175;-75
2022/07/13 07:09:25;;;;;;;1.53;0.90;;;19.10;53.60;;;;;;4209876;28;21008;-74
2022/07/13 07:11:25;;;;;;;2.17;0.80;;;19.40;52.20;;;;;;4208584;28;20216;-74
2022/07/13 07:13:26;;;;;;;2.30;0.77;;;19.70;51.10;;;;;;4209621;28;20191;-73
2022/07/13 07:15:26;;;;;;;1.60;1.00;;;19.70;49.80;;;;;;4209833;28;20207;-72
2022/07/13 07:17:27;;;;;;;1.70;0.90;;;19.90;50.20;;;;;;4208968;28;20256;-71
2022/07/13 07:19:28;;;;;;;0.77;0.70;;;19.90;50.10;;;;;;4209413;28;20634;-72
2022/07/13 07:21:29;;;;;;;0.90;0.90;;;20.10;48.90;;;;;;4208576;28;20645;-71
2022/07/13 07:23:30;;;;;;;0.90;0.90;;;20.20;48.00;;;;;;4208861;28;20189;-72
2022/07/13 07:25:31;;;;;;;1.57;0.90;;;20.30;46.60;;;;;;4209518;28;20191;-69
2022/07/13 07:27:31;;;;;;;1.90;0.73;;;20.40;46.60;;;;;;4208920;28;20202;-73
2022/07/13 07:29:32;;;;;;;2.43;0.80;;;20.50;46.10;;;;;;4208431;28;20715;-72
2022/07/13 07:31:32;;;;;;;1.13;1.00;;;20.50;47.00;;;;;;4208139;28;20182;-70
2022/07/13 07:33:33;;;;;;;1.50;0.77;;;20.50;47.30;;;;;;4209258;28;20991;-71
2022/07/13 07:35:33;;;;;;;2.67;2.47;;;20.70;44.10;;;;;;4209800;28;20226;-72
2022/07/13 07:37:35;;;;;;;1.57;0.80;;;20.90;44.70;;;;;;4209005;28;20182;-72
2022/07/13 07:39:37;;;;;;;2.40;1.87;;;20.90;42.80;;;;;;4209318;28;20617;-72
2022/07/13 07:41:37;;;;;;;2.93;1.17;;;20.90;43.00;;;;;;4208543;28;20179;-73
2022/07/13 07:43:38;;;;;;;1.00;1.00;;;21.00;44.20;;;;;;4209285;28;20234;-71
2022/07/13 07:45:39;;;;;;;1.87;1.77;;;21.10;44.20;;;;;;4208900;28;20236;-73
2022/07/13 07:47:40;;;;;;;2.50;1.10;;;21.20;42.80;;;;;;4208910;28;20203;-74
2022/07/13 07:49:40;;;;;;;1.77;1.67;;;21.20;42.30;;;;;;4209042;28;20203;-73
2022/07/13 07:51:41;;;;;;;1.40;1.30;;;21.30;42.00;;;;;;4208329;28;20183;-70
2022/07/13 07:53:43;;;;;;;1.10;1.00;;;21.50;44.70;;;;;;4208951;28;20276;-69
2022/07/13 07:55:43;;;;;;;6.53;1.13;;;21.60;42.20;;;;;;4208411;28;20639;-70
2022/07/13 07:57:46;;;;;;;1.20;0.90;;;21.90;41.70;;;;;;4208918;28;20224;-70
2022/07/13 07:59:46;;;;;;;3.97;3.77;;;21.90;40.90;;;;;;4207695;28;20187;-70
2022/07/13 08:01:47;;;;;;;2.83;1.00;;;21.90;39.50;;;;;;4208179;28;20779;-71
2022/07/13 08:03:47;;;;;;;0.80;0.80;;;22.00;42.30;;;;;;4208762;28;20218;-70
2022/07/13 08:05:51;;;;;;;9.17;8.63;;;22.10;42.30;;;;;;4208474;28;20677;-72
2022/07/13 08:07:52;;;;;;;2.07;1.00;;;22.10;39.80;;;;;;4208335;28;20193;-71
2022/07/13 08:09:53;;;;;;;2.77;0.90;;;22.20;39.20;;;;;;4208583;28;20214;-73
2022/07/13 08:11:54;;;;;;;1.50;1.00;;;22.20;38.90;;;;;;4206755;28;20260;-69
2022/07/13 08:13:55;;;;;;;6.10;5.80;;;22.30;39.00;;;;;;4208678;28;20286;-69
2022/07/13 08:15:56;;;;;;;0.90;0.90;;;22.40;40.00;;;;;;4208406;28;20171;-68
2022/07/13 08:17:57;;;;;;;2.50;0.90;;;22.40;37.10;;;;;;4208706;28;20179;-69
2022/07/13 08:19:58;;;;;;;3.27;3.07;;;22.50;36.50;;;;;;4208909;28;20178;-69
2022/07/13 08:21:58;;;;;;;2.43;1.00;;;22.40;36.50;;;;;;4207711;28;20248;-69
2022/07/13 08:23:59;;;;;;;1.57;0.97;;;22.40;37.50;;;;;;4209008;28;20209;-69
2022/07/13 08:25:59;;;;;;;1.60;1.50;;;22.50;37.60;;;;;;4208582;28;20641;-70
2022/07/13 08:28:00;;;;;;;1.07;1.00;;;22.60;36.10;;;;;;4208829;28;20227;-70
2022/07/13 08:30:00;;;;;;;2.70;0.80;;;22.60;36.90;;;;;;4207382;28;20183;-69
2022/07/13 08:32:02;;;;;;;2.47;2.37;;;22.80;37.70;;;;;;4207224;28;20199;-68
2022/07/13 08:38:44;;;;;;;1.77;1.00;;;23.20;37.80;;;;;;4208348;28;20232;-67
2022/07/13 08:40:45;;;;;;;2.73;1.13;;;23.20;35.80;;;;;;4208869;28;20175;-69
2022/07/13 08:42:46;;;;;;;1.10;1.00;;;23.40;35.80;;;;;;4211351;28;20187;-71
2022/07/13 08:44:46;;;;;;;1.73;1.63;;;23.50;36.50;;;;;;4212079;28;20233;-73
2022/07/13 08:46:48;;;;;;;3.40;3.20;;;23.50;35.50;;;;;;4209177;28;20186;-74
2022/07/13 08:48:53;;;;;;;4.43;1.40;;;23.60;33.40;;;;;;4211522;28;20190;-71
2022/07/13 08:50:54;;;;;;;1.03;1.00;;;23.40;32.50;;;;;;4210609;28;20607;-72
2022/07/13 08:52:54;;;;;;;2.97;1.57;;;23.80;32.90;;;;;;4211430;28;20246;-73
2022/07/13 08:54:55;;;;;;;2.40;1.10;;;23.90;31.10;;;;;;4210845;28;20195;-72
2022/07/13 08:56:56;;;;;;;1.60;1.50;;;24.10;32.70;;;;;;4210706;28;20218;-72
2022/07/13 08:58:56;;;;;;;1.30;1.30;;;24.00;31.10;;;;;;4211873;28;20175;-71
2022/07/13 09:00:57;;;;;;;2.43;1.50;;;24.10;28.90;;;;;;4209774;28;20219;-71
2022/07/13 09:02:58;;;;;;;1.20;1.10;;;23.90;29.60;;;;;;4209479;28;20633;-68
2022/07/13 09:05:04;;;;;;;1.40;1.30;;;24.10;29.20;;;;;;4211836;28;20206;-68
2022/07/13 09:07:11;;;;;;;1.73;1.33;;;24.20;29.70;;;;;;4210733;28;20195;-68
2022/07/13 09:09:35;;;;;;;5.17;1.50;;;25.00;31.30;;;;;;4211197;28;20638;-69
2022/07/13 09:11:36;;;;;;;1.47;1.37;;;25.10;28.20;;;;;;4209406;28;20207;-69
2022/07/13 09:13:42;;;;;;;2.30;1.40;;;25.00;27.30;;;;;;4210656;28;20232;-71
2022/07/13 09:15:43;;;;;;;13.77;13.00;;;25.00;26.30;;;;;;4210634;28;20737;-72
2022/07/13 09:17:44;;;;;;;4.57;4.30;;;25.20;26.70;;;;;;4211124;28;20194;-71
2022/07/13 09:19:45;;;;;;;2.03;1.93;;;25.50;27.40;;;;;;4211008;28;20193;-71
2022/07/13 09:21:45;;;;;;;2.13;1.30;;;25.70;27.60;;;;;;4207797;28;20241;-71
2022/07/13 09:23:49;;;;;;;2.17;2.07;;;25.90;26.60;;;;;;4211388;28;20219;-70
2022/07/13 09:25:54;;;;;;;4.30;2.00;;;26.30;26.90;;;;;;4212247;28;20206;-71
2022/07/13 09:27:55;;;;;;;1.70;1.60;;;26.20;26.60;;;;;;4210710;28;20875;-71
2022/07/13 09:29:56;;;;;;;1.43;1.33;;;26.20;27.10;;;;;;4213172;28;20199;-72
2022/07/13 09:31:58;;;;;;;2.73;2.53;;;26.60;25.70;;;;;;4210527;28;20705;-71
2022/07/13 09:33:59;;;;;;;4.40;4.10;;;26.50;25.90;;;;;;4211438;28;20835;-72
2022/07/13 09:36:11;;;;;;;2.37;2.27;;;26.80;26.40;;;;;;4210548;28;20194;-74
2022/07/13 09:38:39;;;;;;;4.30;1.90;;;27.30;25.30;;;;;;4210790;28;20187;-74
2022/07/13 09:40:39;;;;;;;1.83;1.40;;;27.70;25.00;;;;;;4210833;28;20163;-73
2022/07/13 09:42:41;;;;;;;2.27;2.03;;;27.90;22.60;;;;;;4209798;28;20218;-74
2022/07/13 09:47:14;;;;;;;1.20;1.20;;;28.60;22.10;;;;;;4210627;28;20186;-71
2022/07/13 09:49:19;;;;;;;1.47;1.40;;;28.60;21.00;;;;;;4210336;28;20273;-70
2022/07/13 09:51:27;;;;;;;2.30;2.20;;;28.80;20.00;;;;;;4209861;28;20183;-71
2022/07/13 09:53:32;;;;;;;1.10;1.10;;;28.80;19.50;;;;;;4208921;28;20218;-71
2022/07/13 09:55:34;;;;;;;1.43;0.90;;;29.10;20.30;;;;;;4210264;28;20236;-72
2022/07/13 09:57:40;;;;;;;1.25;1.25;;;29.50;19.80;;;;;;4210345;28;20183;-74
2022/07/13 09:59:43;;;;;;;2.78;2.58;;;29.80;19.20;;;;;;4210514;28;20185;-71
2022/07/13 10:01:45;;;;;;;1.30;1.20;;;29.80;18.80;;;;;;4208491;28;20747;-71
2022/07/13 10:03:47;;;;;;;1.35;1.30;;;29.20;19.90;;;;;;4210170;28;20235;-71
2022/07/13 10:05:49;;;;;;;0.93;0.93;;;29.70;19.10;;;;;;4210190;28;20179;-71
2022/07/13 10:07:51;;;;;;;8.07;7.68;;;29.60;18.20;;;;;;4210747;28;20191;-73
2022/07/13 10:09:52;;;;;;;1.20;1.20;;;29.20;16.20;;;;;;4208654;28;20282;-70
2022/07/13 10:11:53;;;;;;;2.20;0.80;;;28.70;17.00;;;;;;4208702;28;20195;-71
2022/07/13 10:13:55;;;;;;;0.93;0.93;;;28.90;18.40;;;;;;4210387;28;20197;-71
2022/07/13 10:15:55;;;;;;;1.00;1.00;;;29.00;17.70;;;;;;4210643;28;20179;-73
2022/07/13 10:17:57;;;;;;;1.42;1.00;;;29.10;18.40;;;;;;4209623;28;20203;-71
2022/07/13 10:20:00;;;;;;;4.20;1.40;;;29.60;19.40;;;;;;4210279;28;20163;-70
2022/07/13 10:22:09;;;;;;;1.35;1.30;;;29.10;20.00;;;;;;4209513;28;20199;-71
2022/07/13 10:24:17;;;;;;;3.45;3.33;;;29.10;20.60;;;;;;4209504;28;20222;-71
2022/07/13 10:26:25;;;;;;;1.30;1.07;;;29.60;20.10;;;;;;4209743;28;20710;-75
2022/07/13 10:28:26;;;;;;;2.50;1.10;;;29.60;19.30;;;;;;4210358;28;20184;-70
2022/07/13 10:30:27;;;;;;;1.20;1.20;;;29.40;19.40;;;;;;4209801;28;20565;-72
2022/07/13 10:32:30;;;;;;;1.10;1.00;;;29.60;19.50;;;;;;4208898;28;20198;-72
2022/07/13 10:34:52;;;;;;;1.63;1.30;;;29.30;20.90;;;;;;4210100;28;20580;-70
2022/07/13 10:36:56;;;;;;;2.08;1.20;;;29.20;19.80;;;;;;4209322;28;20693;-75
2022/07/13 10:39:10;;;;;;;4.53;4.32;;;29.10;20.10;;;;;;4209432;28;20671;-70